sensor_id;sensor_type;location;lat;lon;timestamp;temperature;humidity
16863;DHT22;52193;48.216;-1.698;2023-02-28T00:00:00;8.30;73.30
16863;DHT22;52193;48.216;-1.698;2023-02-28T00:02:34;8.30;73.40
16863;DHT22;52193;48.216;-1.698;2023-02-28T00:05:01;8.30;73.30
16863;DHT22;52193;48.216;-1.698;2023-02-28T00:07:29;8.30;73.40
16863;DHT22;52193;48.216;-1.698;2023-02-28T00:09:56;8.40;73.40
16863;DHT22;52193;48.216;-1.698;2023-02-28T00:12:23;8.40;73.50
16863;DHT22;52193;48.216;-1.698;2023-02-28T00:14:52;8.30;73.50
16863;DHT22;52193;48.216;-1.698;2023-02-28T00:17:19;8.30;73.60
16863;DHT22;52193;48.216;-1.698;2023-02-28T00:19:47;8.30;73.70
16863;DHT22;52193;48.216;-1.698;2023-02-28T00:22:15;8.30;73.60
16863;DHT22;52193;48.216;-1.698;2023-02-28T00:24:42;8.30;73.80
16863;DHT22;52193;48.216;-1.698;2023-02-28T00:27:09;8.20;73.70
16863;DHT22;52193;48.216;-1.698;2023-02-28T00:29:37;8.30;73.90
16863;DHT22;52193;48.216;-1.698;2023-02-28T00:32:06;8.20;73.80
16863;DHT22;52193;48.216;-1.698;2023-02-28T00:34:33;8.20;73.90
16863;DHT22;52193;48.216;-1.698;2023-02-28T00:37:03;8.20;73.80
16863;DHT22;52193;48.216;-1.698;2023-02-28T00:39:33;8.10;73.90
16863;DHT22;52193;48.216;-1.698;2023-02-28T00:42:00;8.10;74.00
16863;DHT22;52193;48.216;-1.698;2023-02-28T00:44:27;8.10;74.00
16863;DHT22;52193;48.216;-1.698;2023-02-28T00:46:54;8.10;74.10
16863;DHT22;52193;48.216;-1.698;2023-02-28T00:49:23;8.10;74.00
16863;DHT22;52193;48.216;-1.698;2023-02-28T00:51:50;8.10;74.10
16863;DHT22;52193;48.216;-1.698;2023-02-28T00:54:17;8.00;74.90
16863;DHT22;52193;48.216;-1.698;2023-02-28T00:56:44;8.00;75.50
16863;DHT22;52193;48.216;-1.698;2023-02-28T00:59:12;8.00;75.30
16863;DHT22;52193;48.216;-1.698;2023-02-28T01:01:39;8.00;75.50
16863;DHT22;52193;48.216;-1.698;2023-02-28T01:04:07;8.00;75.50
16863;DHT22;52193;48.216;-1.698;2023-02-28T01:06:35;8.10;75.50
16863;DHT22;52193;48.216;-1.698;2023-02-28T01:09:03;8.10;75.30
16863;DHT22;52193;48.216;-1.698;2023-02-28T01:11:31;8.20;75.90
16863;DHT22;52193;48.216;-1.698;2023-02-28T01:13:58;8.20;75.10
16863;DHT22;52193;48.216;-1.698;2023-02-28T01:16:26;8.20;75.20
16863;DHT22;52193;48.216;-1.698;2023-02-28T01:18:53;8.20;75.00
16863;DHT22;52193;48.216;-1.698;2023-02-28T01:21:21;8.20;74.90
16863;DHT22;52193;48.216;-1.698;2023-02-28T01:23:50;8.20;75.00
16863;DHT22;52193;48.216;-1.698;2023-02-28T01:26:18;8.30;75.10
16863;DHT22;52193;48.216;-1.698;2023-02-28T01:28:46;8.20;74.90
16863;DHT22;52193;48.216;-1.698;2023-02-28T01:31:13;8.20;74.90
16863;DHT22;52193;48.216;-1.698;2023-02-28T01:33:41;8.20;75.00
16863;DHT22;52193;48.216;-1.698;2023-02-28T01:36:10;8.30;75.10
16863;DHT22;52193;48.216;-1.698;2023-02-28T01:38:38;8.30;75.00
16863;DHT22;52193;48.216;-1.698;2023-02-28T01:41:07;8.30;75.10
16863;DHT22;52193;48.216;-1.698;2023-02-28T01:44:00;8.30;74.90
16863;DHT22;52193;48.216;-1.698;2023-02-28T01:46:29;8.40;75.00
16863;DHT22;52193;48.216;-1.698;2023-02-28T01:49:01;8.30;74.80
16863;DHT22;52193;48.216;-1.698;2023-02-28T01:51:33;8.20;75.00
16863;DHT22;52193;48.216;-1.698;2023-02-28T01:54:03;8.20;74.90
16863;DHT22;52193;48.216;-1.698;2023-02-28T01:56:34;8.20;75.00
16863;DHT22;52193;48.216;-1.698;2023-02-28T01:59:03;8.20;75.10
16863;DHT22;52193;48.216;-1.698;2023-02-28T02:01:31;8.20;75.20
16863;DHT22;52193;48.216;-1.698;2023-02-28T02:04:01;8.20;75.10
16863;DHT22;52193;48.216;-1.698;2023-02-28T02:06:31;8.10;75.00
16863;DHT22;52193;48.216;-1.698;2023-02-28T02:09:00;8.20;75.10
16863;DHT22;52193;48.216;-1.698;2023-02-28T02:11:28;8.10;75.70
16863;DHT22;52193;48.216;-1.698;2023-02-28T02:20:10;8.10;74.90
16863;DHT22;52193;48.216;-1.698;2023-02-28T02:23:07;8.10;75.00
16863;DHT22;52193;48.216;-1.698;2023-02-28T02:25:41;8.10;75.10
16863;DHT22;52193;48.216;-1.698;2023-02-28T02:28:22;8.10;75.10
16863;DHT22;52193;48.216;-1.698;2023-02-28T02:37:14;8.00;75.10
16863;DHT22;52193;48.216;-1.698;2023-02-28T02:39:48;8.00;75.20
16863;DHT22;52193;48.216;-1.698;2023-02-28T02:42:23;8.00;75.10
16863;DHT22;52193;48.216;-1.698;2023-02-28T02:44:58;8.00;75.20
16863;DHT22;52193;48.216;-1.698;2023-02-28T02:47:29;8.00;75.10
16863;DHT22;52193;48.216;-1.698;2023-02-28T02:50:02;7.90;75.10
16863;DHT22;52193;48.216;-1.698;2023-02-28T02:52:34;7.90;75.30
16863;DHT22;52193;48.216;-1.698;2023-02-28T02:55:04;7.90;75.30
16863;DHT22;52193;48.216;-1.698;2023-02-28T02:57:36;7.90;75.10
16863;DHT22;52193;48.216;-1.698;2023-02-28T03:00:04;7.90;75.40
16863;DHT22;52193;48.216;-1.698;2023-02-28T03:02:35;7.90;75.40
16863;DHT22;52193;48.216;-1.698;2023-02-28T03:05:06;7.90;75.40
16863;DHT22;52193;48.216;-1.698;2023-02-28T03:07:34;7.90;75.40
16863;DHT22;52193;48.216;-1.698;2023-02-28T03:10:01;7.80;75.30
16863;DHT22;52193;48.216;-1.698;2023-02-28T03:12:38;7.80;75.40
16863;DHT22;52193;48.216;-1.698;2023-02-28T03:15:11;7.80;75.30
16863;DHT22;52193;48.216;-1.698;2023-02-28T03:17:54;7.80;75.30
16863;DHT22;52193;48.216;-1.698;2023-02-28T03:20:35;7.80;75.30
16863;DHT22;52193;48.216;-1.698;2023-02-28T03:23:12;7.80;75.50
16863;DHT22;52193;48.216;-1.698;2023-02-28T03:25:50;7.80;75.50
16863;DHT22;52193;48.216;-1.698;2023-02-28T03:28:27;7.80;75.40
16863;DHT22;52193;48.216;-1.698;2023-02-28T03:31:00;7.80;75.60
16863;DHT22;52193;48.216;-1.698;2023-02-28T03:33:33;7.80;75.60
16863;DHT22;52193;48.216;-1.698;2023-02-28T03:36:06;7.70;75.60
16863;DHT22;52193;48.216;-1.698;2023-02-28T03:38:37;7.70;75.60
16863;DHT22;52193;48.216;-1.698;2023-02-28T03:41:09;7.70;75.70
16863;DHT22;52193;48.216;-1.698;2023-02-28T03:43:42;7.60;75.80
16863;DHT22;52193;48.216;-1.698;2023-02-28T03:46:12;7.50;75.90
16863;DHT22;52193;48.216;-1.698;2023-02-28T03:48:43;7.50;75.90
16863;DHT22;52193;48.216;-1.698;2023-02-28T03:51:16;7.50;76.10
16863;DHT22;52193;48.216;-1.698;2023-02-28T03:53:46;7.50;76.10
16863;DHT22;52193;48.216;-1.698;2023-02-28T03:56:17;7.50;76.10
16863;DHT22;52193;48.216;-1.698;2023-02-28T03:58:49;7.50;76.20
16863;DHT22;52193;48.216;-1.698;2023-02-28T04:01:21;7.40;76.10
16863;DHT22;52193;48.216;-1.698;2023-02-28T04:03:49;7.40;76.20
16863;DHT22;52193;48.216;-1.698;2023-02-28T04:06:20;7.40;76.10
16863;DHT22;52193;48.216;-1.698;2023-02-28T04:08:48;7.40;76.30
16863;DHT22;52193;48.216;-1.698;2023-02-28T04:11:23;7.40;76.20
16863;DHT22;52193;48.216;-1.698;2023-02-28T04:13:50;7.30;76.20
16863;DHT22;52193;48.216;-1.698;2023-02-28T04:16:18;7.30;76.30
16863;DHT22;52193;48.216;-1.698;2023-02-28T04:18:45;7.30;76.40
16863;DHT22;52193;48.216;-1.698;2023-02-28T04:21:12;7.40;77.00
16863;DHT22;52193;48.216;-1.698;2023-02-28T04:23:41;7.40;76.40
16863;DHT22;52193;48.216;-1.698;2023-02-28T04:26:08;7.40;76.30
16863;DHT22;52193;48.216;-1.698;2023-02-28T04:28:37;7.30;76.40
16863;DHT22;52193;48.216;-1.698;2023-02-28T04:31:05;7.30;76.30
16863;DHT22;52193;48.216;-1.698;2023-02-28T04:33:32;7.20;76.40
16863;DHT22;52193;48.216;-1.698;2023-02-28T04:36:00;7.30;76.40
16863;DHT22;52193;48.216;-1.698;2023-02-28T04:38:28;7.20;76.30
16863;DHT22;52193;48.216;-1.698;2023-02-28T04:40:58;7.20;76.40
16863;DHT22;52193;48.216;-1.698;2023-02-28T04:43:26;7.10;76.50
16863;DHT22;52193;48.216;-1.698;2023-02-28T04:45:53;7.10;76.50
16863;DHT22;52193;48.216;-1.698;2023-02-28T04:48:22;7.00;76.60
16863;DHT22;52193;48.216;-1.698;2023-02-28T04:50:50;7.00;76.60
16863;DHT22;52193;48.216;-1.698;2023-02-28T04:53:17;7.00;76.60
16863;DHT22;52193;48.216;-1.698;2023-02-28T04:55:45;7.00;76.60
16863;DHT22;52193;48.216;-1.698;2023-02-28T04:58:13;7.00;76.80
16863;DHT22;52193;48.216;-1.698;2023-02-28T05:00:40;7.00;76.60
16863;DHT22;52193;48.216;-1.698;2023-02-28T05:03:07;7.00;76.50
16863;DHT22;52193;48.216;-1.698;2023-02-28T05:05:35;7.00;76.50
16863;DHT22;52193;48.216;-1.698;2023-02-28T05:08:02;7.00;77.40
16863;DHT22;52193;48.216;-1.698;2023-02-28T05:10:30;7.00;76.50
16863;DHT22;52193;48.216;-1.698;2023-02-28T05:12:58;7.00;76.40
16863;DHT22;52193;48.216;-1.698;2023-02-28T05:15:26;7.00;76.50
16863;DHT22;52193;48.216;-1.698;2023-02-28T05:17:53;7.10;76.20
16863;DHT22;52193;48.216;-1.698;2023-02-28T05:20:20;7.00;76.00
16863;DHT22;52193;48.216;-1.698;2023-02-28T05:22:47;7.00;76.10
16863;DHT22;52193;48.216;-1.698;2023-02-28T05:25:19;7.00;76.20
16863;DHT22;52193;48.216;-1.698;2023-02-28T05:27:47;7.00;76.20
16863;DHT22;52193;48.216;-1.698;2023-02-28T05:30:14;7.00;76.10
16863;DHT22;52193;48.216;-1.698;2023-02-28T05:32:43;6.80;76.00
16863;DHT22;52193;48.216;-1.698;2023-02-28T05:35:10;6.90;76.20
16863;DHT22;52193;48.216;-1.698;2023-02-28T05:37:38;6.90;76.20
16863;DHT22;52193;48.216;-1.698;2023-02-28T05:40:06;6.90;75.90
16863;DHT22;52193;48.216;-1.698;2023-02-28T05:42:35;7.00;76.00
16863;DHT22;52193;48.216;-1.698;2023-02-28T05:45:03;6.90;75.80
16863;DHT22;52193;48.216;-1.698;2023-02-28T05:47:30;6.90;75.80
16863;DHT22;52193;48.216;-1.698;2023-02-28T05:49:58;6.80;75.80
16863;DHT22;52193;48.216;-1.698;2023-02-28T05:52:25;6.80;75.80
16863;DHT22;52193;48.216;-1.698;2023-02-28T05:54:52;6.80;75.90
16863;DHT22;52193;48.216;-1.698;2023-02-28T05:57:19;6.80;75.80
16863;DHT22;52193;48.216;-1.698;2023-02-28T05:59:46;6.80;75.80
16863;DHT22;52193;48.216;-1.698;2023-02-28T06:02:15;6.80;76.00
16863;DHT22;52193;48.216;-1.698;2023-02-28T06:04:43;6.80;75.80
16863;DHT22;52193;48.216;-1.698;2023-02-28T06:07:11;6.90;75.80
16863;DHT22;52193;48.216;-1.698;2023-02-28T06:09:38;6.90;75.60
16863;DHT22;52193;48.216;-1.698;2023-02-28T06:12:06;6.90;75.40
16863;DHT22;52193;48.216;-1.698;2023-02-28T06:14:35;6.80;75.40
16863;DHT22;52193;48.216;-1.698;2023-02-28T06:17:02;6.80;75.50
16863;DHT22;52193;48.216;-1.698;2023-02-28T06:19:29;6.80;75.60
16863;DHT22;52193;48.216;-1.698;2023-02-28T06:21:57;6.80;75.50
16863;DHT22;52193;48.216;-1.698;2023-02-28T06:24:27;6.80;75.50
16863;DHT22;52193;48.216;-1.698;2023-02-28T06:26:54;6.80;75.50
16863;DHT22;52193;48.216;-1.698;2023-02-28T06:29:21;6.80;75.60
16863;DHT22;52193;48.216;-1.698;2023-02-28T06:31:48;6.70;75.50
16863;DHT22;52193;48.216;-1.698;2023-02-28T06:34:16;6.70;75.60
16863;DHT22;52193;48.216;-1.698;2023-02-28T06:36:43;6.80;75.50
16863;DHT22;52193;48.216;-1.698;2023-02-28T06:39:10;6.80;75.40
16863;DHT22;52193;48.216;-1.698;2023-02-28T06:41:39;6.90;75.40
16863;DHT22;52193;48.216;-1.698;2023-02-28T06:44:10;6.80;75.30
16863;DHT22;52193;48.216;-1.698;2023-02-28T06:46:39;6.80;75.30
16863;DHT22;52193;48.216;-1.698;2023-02-28T06:49:06;6.90;75.20
16863;DHT22;52193;48.216;-1.698;2023-02-28T06:51:36;6.80;75.10
16863;DHT22;52193;48.216;-1.698;2023-02-28T06:54:03;6.80;75.30
16863;DHT22;52193;48.216;-1.698;2023-02-28T06:56:30;6.80;75.40
16863;DHT22;52193;48.216;-1.698;2023-02-28T06:59:00;6.90;75.30
16863;DHT22;52193;48.216;-1.698;2023-02-28T07:01:26;6.90;75.30
16863;DHT22;52193;48.216;-1.698;2023-02-28T07:03:54;6.90;75.30
16863;DHT22;52193;48.216;-1.698;2023-02-28T07:06:22;6.90;75.30
16863;DHT22;52193;48.216;-1.698;2023-02-28T07:08:50;6.90;75.20
16863;DHT22;52193;48.216;-1.698;2023-02-28T07:11:17;7.00;75.20
16863;DHT22;52193;48.216;-1.698;2023-02-28T07:13:45;7.00;75.10
16863;DHT22;52193;48.216;-1.698;2023-02-28T07:16:14;7.00;75.00
16863;DHT22;52193;48.216;-1.698;2023-02-28T07:18:41;7.10;75.10
16863;DHT22;52193;48.216;-1.698;2023-02-28T07:21:09;7.10;75.00
16863;DHT22;52193;48.216;-1.698;2023-02-28T07:23:37;7.10;74.90
16863;DHT22;52193;48.216;-1.698;2023-02-28T07:26:05;7.10;74.90
16863;DHT22;52193;48.216;-1.698;2023-02-28T07:28:32;7.10;75.00
16863;DHT22;52193;48.216;-1.698;2023-02-28T07:31:03;7.20;75.70
16863;DHT22;52193;48.216;-1.698;2023-02-28T07:33:33;7.20;74.80
16863;DHT22;52193;48.216;-1.698;2023-02-28T07:36:01;7.20;74.90
16863;DHT22;52193;48.216;-1.698;2023-02-28T07:38:28;7.20;74.90
16863;DHT22;52193;48.216;-1.698;2023-02-28T07:40:55;7.30;75.00
16863;DHT22;52193;48.216;-1.698;2023-02-28T07:43:22;7.30;74.90
16863;DHT22;52193;48.216;-1.698;2023-02-28T07:45:49;7.30;74.80
16863;DHT22;52193;48.216;-1.698;2023-02-28T07:48:16;7.30;74.80
16863;DHT22;52193;48.216;-1.698;2023-02-28T07:50:44;7.30;74.40
16863;DHT22;52193;48.216;-1.698;2023-02-28T07:53:13;7.30;74.30
16863;DHT22;52193;48.216;-1.698;2023-02-28T07:55:40;7.40;74.80
16863;DHT22;52193;48.216;-1.698;2023-02-28T07:58:07;7.40;73.80
16863;DHT22;52193;48.216;-1.698;2023-02-28T08:00:34;7.50;73.60
16863;DHT22;52193;48.216;-1.698;2023-02-28T08:03:01;7.50;73.50
16863;DHT22;52193;48.216;-1.698;2023-02-28T08:05:28;7.60;73.60
16863;DHT22;52193;48.216;-1.698;2023-02-28T08:07:57;7.60;73.30
16863;DHT22;52193;48.216;-1.698;2023-02-28T08:10:24;7.60;73.20
16863;DHT22;52193;48.216;-1.698;2023-02-28T08:12:50;7.60;73.20
16863;DHT22;52193;48.216;-1.698;2023-02-28T08:15:18;7.60;73.20
16863;DHT22;52193;48.216;-1.698;2023-02-28T08:17:45;7.60;73.20
16863;DHT22;52193;48.216;-1.698;2023-02-28T08:20:12;7.60;73.10
16863;DHT22;52193;48.216;-1.698;2023-02-28T08:22:39;7.60;73.30
16863;DHT22;52193;48.216;-1.698;2023-02-28T08:25:09;7.70;73.40
16863;DHT22;52193;48.216;-1.698;2023-02-28T08:27:36;7.70;73.40
16863;DHT22;52193;48.216;-1.698;2023-02-28T08:30:04;7.70;73.50
16863;DHT22;52193;48.216;-1.698;2023-02-28T08:32:32;7.70;73.60
16863;DHT22;52193;48.216;-1.698;2023-02-28T08:34:59;7.70;73.60
16863;DHT22;52193;48.216;-1.698;2023-02-28T08:37:27;7.70;74.30
16863;DHT22;52193;48.216;-1.698;2023-02-28T08:39:54;7.70;73.70
16863;DHT22;52193;48.216;-1.698;2023-02-28T08:42:23;7.80;73.70
16863;DHT22;52193;48.216;-1.698;2023-02-28T08:44:50;7.80;73.80
16863;DHT22;52193;48.216;-1.698;2023-02-28T08:47:17;7.80;73.80
16863;DHT22;52193;48.216;-1.698;2023-02-28T08:49:44;7.90;73.80
16863;DHT22;52193;48.216;-1.698;2023-02-28T08:52:11;7.90;73.80
16863;DHT22;52193;48.216;-1.698;2023-02-28T08:54:38;7.90;73.70
16863;DHT22;52193;48.216;-1.698;2023-02-28T08:57:05;7.90;73.90
16863;DHT22;52193;48.216;-1.698;2023-02-28T08:59:34;8.00;74.10
16863;DHT22;52193;48.216;-1.698;2023-02-28T09:02:01;8.00;74.10
16863;DHT22;52193;48.216;-1.698;2023-02-28T09:04:28;8.00;74.10
16863;DHT22;52193;48.216;-1.698;2023-02-28T09:06:56;8.00;74.00
16863;DHT22;52193;48.216;-1.698;2023-02-28T09:09:23;8.00;74.10
16863;DHT22;52193;48.216;-1.698;2023-02-28T09:11:50;8.00;74.10
16863;DHT22;52193;48.216;-1.698;2023-02-28T09:14:17;8.00;74.10
16863;DHT22;52193;48.216;-1.698;2023-02-28T09:16:46;8.10;74.10
16863;DHT22;52193;48.216;-1.698;2023-02-28T09:19:13;8.10;74.10
16863;DHT22;52193;48.216;-1.698;2023-02-28T09:21:40;8.20;74.10
16863;DHT22;52193;48.216;-1.698;2023-02-28T09:24:08;8.20;74.10
16863;DHT22;52193;48.216;-1.698;2023-02-28T09:26:37;8.20;74.10
16863;DHT22;52193;48.216;-1.698;2023-02-28T09:29:04;8.30;74.20
16863;DHT22;52193;48.216;-1.698;2023-02-28T09:31:32;8.30;74.20
16863;DHT22;52193;48.216;-1.698;2023-02-28T09:34:00;8.30;74.20
16863;DHT22;52193;48.216;-1.698;2023-02-28T09:36:27;8.40;74.10
16863;DHT22;52193;48.216;-1.698;2023-02-28T09:38:55;8.40;74.00
16863;DHT22;52193;48.216;-1.698;2023-02-28T09:41:24;8.50;74.10
16863;DHT22;52193;48.216;-1.698;2023-02-28T09:43:56;8.50;73.90
16863;DHT22;52193;48.216;-1.698;2023-02-28T09:46:30;8.60;73.90
16863;DHT22;52193;48.216;-1.698;2023-02-28T09:49:02;8.60;73.60
16863;DHT22;52193;48.216;-1.698;2023-02-28T09:51:39;8.70;74.20
16863;DHT22;52193;48.216;-1.698;2023-02-28T09:54:10;8.70;73.30
16863;DHT22;52193;48.216;-1.698;2023-02-28T09:56:45;8.80;73.30
16863;DHT22;52193;48.216;-1.698;2023-02-28T09:59:29;8.80;73.20
16863;DHT22;52193;48.216;-1.698;2023-02-28T10:02:04;8.90;73.00
16863;DHT22;52193;48.216;-1.698;2023-02-28T10:04:41;9.00;72.90
16863;DHT22;52193;48.216;-1.698;2023-02-28T10:07:21;9.00;72.50
16863;DHT22;52193;48.216;-1.698;2023-02-28T10:09:51;9.10;72.40
16863;DHT22;52193;48.216;-1.698;2023-02-28T10:12:20;9.20;72.10
16863;DHT22;52193;48.216;-1.698;2023-02-28T10:14:49;9.30;72.00
16863;DHT22;52193;48.216;-1.698;2023-02-28T10:17:20;9.40;71.80
16863;DHT22;52193;48.216;-1.698;2023-02-28T10:19:57;9.40;71.50
16863;DHT22;52193;48.216;-1.698;2023-02-28T10:22:31;9.50;71.10
16863;DHT22;52193;48.216;-1.698;2023-02-28T10:25:01;9.50;70.80
16863;DHT22;52193;48.216;-1.698;2023-02-28T10:27:32;9.60;70.70
16863;DHT22;52193;48.216;-1.698;2023-02-28T10:30:00;9.60;70.50
16863;DHT22;52193;48.216;-1.698;2023-02-28T10:32:30;9.70;70.40
16863;DHT22;52193;48.216;-1.698;2023-02-28T10:35:00;9.80;70.20
16863;DHT22;52193;48.216;-1.698;2023-02-28T10:37:28;9.90;70.00
16863;DHT22;52193;48.216;-1.698;2023-02-28T10:39:55;10.00;68.90
16863;DHT22;52193;48.216;-1.698;2023-02-28T10:42:24;10.00;68.60
16863;DHT22;52193;48.216;-1.698;2023-02-28T10:45:12;10.00;68.40
16863;DHT22;52193;48.216;-1.698;2023-02-28T10:47:50;10.10;68.40
16863;DHT22;52193;48.216;-1.698;2023-02-28T10:50:39;10.20;68.40
16863;DHT22;52193;48.216;-1.698;2023-02-28T10:53:24;10.30;68.30
16863;DHT22;52193;48.216;-1.698;2023-02-28T10:55:58;10.40;68.20
16863;DHT22;52193;48.216;-1.698;2023-02-28T10:58:28;10.40;68.10
16863;DHT22;52193;48.216;-1.698;2023-02-28T11:00:55;10.50;68.00
16863;DHT22;52193;48.216;-1.698;2023-02-28T11:03:25;10.60;68.00
16863;DHT22;52193;48.216;-1.698;2023-02-28T11:05:57;10.70;68.00
16863;DHT22;52193;48.216;-1.698;2023-02-28T11:08:24;10.70;67.90
16863;DHT22;52193;48.216;-1.698;2023-02-28T11:10:55;10.80;67.90
16863;DHT22;52193;48.216;-1.698;2023-02-28T11:13:27;10.90;68.00
16863;DHT22;52193;48.216;-1.698;2023-02-28T11:15:56;11.00;68.00
16863;DHT22;52193;48.216;-1.698;2023-02-28T11:18:27;11.10;68.00
16863;DHT22;52193;48.216;-1.698;2023-02-28T11:20:58;11.10;67.90
16863;DHT22;52193;48.216;-1.698;2023-02-28T11:23:30;11.20;67.70
16863;DHT22;52193;48.216;-1.698;2023-02-28T11:26:00;11.20;67.60
16863;DHT22;52193;48.216;-1.698;2023-02-28T11:28:29;11.30;67.70
16863;DHT22;52193;48.216;-1.698;2023-02-28T11:31:04;11.40;67.50
16863;DHT22;52193;48.216;-1.698;2023-02-28T11:33:40;11.50;67.10
16863;DHT22;52193;48.216;-1.698;2023-02-28T11:36:13;11.60;66.50
16863;DHT22;52193;48.216;-1.698;2023-02-28T11:38:41;11.60;65.80
16863;DHT22;52193;48.216;-1.698;2023-02-28T11:41:27;11.70;65.70
16863;DHT22;52193;48.216;-1.698;2023-02-28T11:44:09;11.80;65.40
16863;DHT22;52193;48.216;-1.698;2023-02-28T11:46:46;11.90;65.40
16863;DHT22;52193;48.216;-1.698;2023-02-28T11:49:34;12.00;65.40
16863;DHT22;52193;48.216;-1.698;2023-02-28T11:52:10;12.10;65.00
16863;DHT22;52193;48.216;-1.698;2023-02-28T11:54:52;12.10;64.60
16863;DHT22;52193;48.216;-1.698;2023-02-28T11:57:36;12.30;64.50
16863;DHT22;52193;48.216;-1.698;2023-02-28T12:00:25;12.40;64.50
16863;DHT22;52193;48.216;-1.698;2023-02-28T12:03:00;12.50;64.40
16863;DHT22;52193;48.216;-1.698;2023-02-28T12:05:34;12.60;64.10
16863;DHT22;52193;48.216;-1.698;2023-02-28T12:08:10;12.70;64.20
16863;DHT22;52193;48.216;-1.698;2023-02-28T12:10:48;12.70;63.90
16863;DHT22;52193;48.216;-1.698;2023-02-28T12:13:23;12.80;63.90
16863;DHT22;52193;48.216;-1.698;2023-02-28T12:16:24;12.90;63.80
16863;DHT22;52193;48.216;-1.698;2023-02-28T12:19:03;13.00;63.70
16863;DHT22;52193;48.216;-1.698;2023-02-28T12:21:42;13.00;63.70
16863;DHT22;52193;48.216;-1.698;2023-02-28T12:24:29;13.20;63.80
16863;DHT22;52193;48.216;-1.698;2023-02-28T12:27:00;13.30;63.60
16863;DHT22;52193;48.216;-1.698;2023-02-28T12:29:30;13.30;63.70
16863;DHT22;52193;48.216;-1.698;2023-02-28T12:32:06;13.40;63.70
16863;DHT22;52193;48.216;-1.698;2023-02-28T12:34:37;13.50;63.70
16863;DHT22;52193;48.216;-1.698;2023-02-28T12:37:09;13.60;63.60
16863;DHT22;52193;48.216;-1.698;2023-02-28T12:39:41;13.80;64.40
16863;DHT22;52193;48.216;-1.698;2023-02-28T12:42:13;13.80;63.70
16863;DHT22;52193;48.216;-1.698;2023-02-28T12:44:44;13.90;63.60
16863;DHT22;52193;48.216;-1.698;2023-02-28T12:47:15;14.10;63.70
16863;DHT22;52193;48.216;-1.698;2023-02-28T12:49:46;14.30;63.60
16863;DHT22;52193;48.216;-1.698;2023-02-28T12:52:19;14.30;63.50
16863;DHT22;52193;48.216;-1.698;2023-02-28T12:54:51;14.40;63.60
16863;DHT22;52193;48.216;-1.698;2023-02-28T12:57:27;14.60;63.30
16863;DHT22;52193;48.216;-1.698;2023-02-28T13:00:03;14.80;63.00
16863;DHT22;52193;48.216;-1.698;2023-02-28T13:05:56;15.20;63.10
16863;DHT22;52193;48.216;-1.698;2023-02-28T13:09:01;15.50;62.80
16863;DHT22;52193;48.216;-1.698;2023-02-28T13:14:29;15.80;62.90
16863;DHT22;52193;48.216;-1.698;2023-02-28T13:17:09;16.20;62.50
16863;DHT22;52193;48.216;-1.698;2023-02-28T13:19:38;16.40;62.40
16863;DHT22;52193;48.216;-1.698;2023-02-28T13:22:16;16.30;62.10
16863;DHT22;52193;48.216;-1.698;2023-02-28T13:24:46;16.10;61.80
16863;DHT22;52193;48.216;-1.698;2023-02-28T13:27:23;16.10;62.10
16863;DHT22;52193;48.216;-1.698;2023-02-28T13:29:53;16.20;62.00
16863;DHT22;52193;48.216;-1.698;2023-02-28T13:32:40;16.40;62.00
16863;DHT22;52193;48.216;-1.698;2023-02-28T13:35:35;16.30;61.80
16863;DHT22;52193;48.216;-1.698;2023-02-28T13:38:37;16.30;62.00
16863;DHT22;52193;48.216;-1.698;2023-02-28T13:44:08;15.90;62.40
16863;DHT22;52193;48.216;-1.698;2023-02-28T13:49:42;15.50;62.70
16863;DHT22;52193;48.216;-1.698;2023-02-28T13:52:14;15.20;62.80
16863;DHT22;52193;48.216;-1.698;2023-02-28T13:54:57;15.00;63.10
16863;DHT22;52193;48.216;-1.698;2023-02-28T13:57:37;14.80;63.40
16863;DHT22;52193;48.216;-1.698;2023-02-28T14:00:20;14.70;63.50
16863;DHT22;52193;48.216;-1.698;2023-02-28T14:03:06;14.50;63.70
16863;DHT22;52193;48.216;-1.698;2023-02-28T14:05:36;14.40;63.90
16863;DHT22;52193;48.216;-1.698;2023-02-28T14:08:06;14.20;64.10
16863;DHT22;52193;48.216;-1.698;2023-02-28T14:10:42;14.20;64.40
16863;DHT22;52193;48.216;-1.698;2023-02-28T14:13:39;14.20;64.60
16863;DHT22;52193;48.216;-1.698;2023-02-28T14:16:11;14.00;64.90
16863;DHT22;52193;48.216;-1.698;2023-02-28T14:18:42;13.90;65.20
16863;DHT22;52193;48.216;-1.698;2023-02-28T14:21:14;13.80;65.20
16863;DHT22;52193;48.216;-1.698;2023-02-28T14:24:16;13.70;65.40
16863;DHT22;52193;48.216;-1.698;2023-02-28T14:27:11;13.70;65.70
16863;DHT22;52193;48.216;-1.698;2023-02-28T14:33:21;13.40;66.20
16863;DHT22;52193;48.216;-1.698;2023-02-28T14:36:06;13.30;66.50
16863;DHT22;52193;48.216;-1.698;2023-02-28T14:38:37;13.30;66.70
16863;DHT22;52193;48.216;-1.698;2023-02-28T14:41:16;13.20;66.90
16863;DHT22;52193;48.216;-1.698;2023-02-28T14:43:54;13.10;67.40
16863;DHT22;52193;48.216;-1.698;2023-02-28T14:46:25;13.10;67.80
16863;DHT22;52193;48.216;-1.698;2023-02-28T14:48:53;13.00;68.40
16863;DHT22;52193;48.216;-1.698;2023-02-28T14:51:22;13.00;69.20
16863;DHT22;52193;48.216;-1.698;2023-02-28T14:53:52;12.90;70.20
16863;DHT22;52193;48.216;-1.698;2023-02-28T14:56:22;12.90;70.70
16863;DHT22;52193;48.216;-1.698;2023-02-28T14:58:54;12.80;71.10
16863;DHT22;52193;48.216;-1.698;2023-02-28T15:01:24;12.70;71.60
16863;DHT22;52193;48.216;-1.698;2023-02-28T15:03:59;12.70;71.90
16863;DHT22;52193;48.216;-1.698;2023-02-28T15:06:27;12.60;72.30
16863;DHT22;52193;48.216;-1.698;2023-02-28T15:09:15;12.50;72.70
16863;DHT22;52193;48.216;-1.698;2023-02-28T15:11:46;12.60;73.20
16863;DHT22;52193;48.216;-1.698;2023-02-28T15:14:19;12.60;73.10
16863;DHT22;52193;48.216;-1.698;2023-02-28T15:16:51;12.70;73.40
16863;DHT22;52193;48.216;-1.698;2023-02-28T15:19:21;12.60;73.50
16863;DHT22;52193;48.216;-1.698;2023-02-28T15:21:52;12.60;73.60
16863;DHT22;52193;48.216;-1.698;2023-02-28T15:24:30;12.50;73.90
16863;DHT22;52193;48.216;-1.698;2023-02-28T15:26:59;12.40;74.10
16863;DHT22;52193;48.216;-1.698;2023-02-28T15:29:29;12.40;74.20
16863;DHT22;52193;48.216;-1.698;2023-02-28T15:32:01;12.40;74.40
16863;DHT22;52193;48.216;-1.698;2023-02-28T15:34:34;12.30;74.60
16863;DHT22;52193;48.216;-1.698;2023-02-28T15:37:02;12.20;75.10
16863;DHT22;52193;48.216;-1.698;2023-02-28T15:39:48;12.20;75.40
16863;DHT22;52193;48.216;-1.698;2023-02-28T15:42:19;12.20;76.00
16863;DHT22;52193;48.216;-1.698;2023-02-28T15:44:46;12.20;76.20
16863;DHT22;52193;48.216;-1.698;2023-02-28T15:47:18;12.10;76.20
16863;DHT22;52193;48.216;-1.698;2023-02-28T15:49:48;12.10;76.50
16863;DHT22;52193;48.216;-1.698;2023-02-28T15:52:18;12.10;76.90
16863;DHT22;52193;48.216;-1.698;2023-02-28T15:54:46;12.10;77.10
16863;DHT22;52193;48.216;-1.698;2023-02-28T15:57:15;12.10;77.40
16863;DHT22;52193;48.216;-1.698;2023-02-28T15:59:50;12.00;77.60
16863;DHT22;52193;48.216;-1.698;2023-02-28T16:02:21;12.20;77.90
16863;DHT22;52193;48.216;-1.698;2023-02-28T16:04:59;12.10;78.10
16863;DHT22;52193;48.216;-1.698;2023-02-28T16:07:26;12.10;78.30
16863;DHT22;52193;48.216;-1.698;2023-02-28T16:09:54;12.10;78.40
16863;DHT22;52193;48.216;-1.698;2023-02-28T16:12:25;12.10;78.40
16863;DHT22;52193;48.216;-1.698;2023-02-28T16:14:54;12.10;78.60
16863;DHT22;52193;48.216;-1.698;2023-02-28T16:17:25;12.10;78.70